📊 Raw Sensor Data

Showing records 41626 to 41650 of 84,986 total

ID Distance (ft) Battery V Battery A Int Temp (°F) Int Humid (%) Ext Temp (°F) Solar V RSSI SNR Time Stamp
43373 15.7 4.01 0 64 44 68 5.10 -68 8 06/13/2025 08:30 AM
43372 15.7 4.01 0 62 43 65 5.10 -67 8 06/13/2025 08:15 AM
43371 15.7 4.01 0 61 43 66 5.10 -68 8 06/13/2025 08:00 AM
43370 15.6 4.01 0 60 43 66 5.10 -69 7 06/13/2025 07:45 AM
43369 15.6 4.13 30 59 42 63 4.50 -70 8 06/13/2025 07:30 AM
43368 15.6 4.03 17 57 42 63 4.50 -69 8 06/13/2025 07:15 AM
43367 15.6 4.05 8 56 42 61 4.50 -70 8 06/13/2025 07:00 AM
43366 15.5 4.03 6 54 42 60 4.50 -68 8 06/13/2025 06:45 AM
43365 15.5 4.02 0 52 42 58 4.50 -67 8 06/13/2025 06:30 AM
43364 15.5 3.94 0 51 42 56 4.50 -67 8 06/13/2025 06:15 AM
43363 15.4 3.93 -5 50 42 52 4.50 -67 8 06/13/2025 06:00 AM
43362 15.4 3.92 -37 49 42 51 4.50 -68 9 06/13/2025 05:45 AM
43361 15.4 3.93 -5 49 42 51 1.60 -68 8 06/13/2025 05:30 AM
43360 15.4 3.93 -5 49 43 51 0.00 -68 8 06/13/2025 05:15 AM
43359 15.4 3.94 -5 49 43 51 0.00 -67 8 06/13/2025 05:00 AM
43358 15.4 3.94 -5 48 43 50 0.00 -67 8 06/13/2025 04:45 AM
43357 15.4 4.01 -5 49 43 50 0.00 -68 8 06/13/2025 04:30 AM
43356 15.4 3.94 -5 49 43 51 0.00 -68 8 06/13/2025 04:15 AM
43355 15.4 4.01 -5 49 43 51 0.00 -67 7 06/13/2025 04:00 AM
43354 15.4 3.94 -5 49 43 51 0.00 -67 8 06/13/2025 03:45 AM
43353 15.4 4.01 -5 49 43 51 0.00 -67 8 06/13/2025 03:30 AM
43352 15.4 3.94 -5 49 43 51 0.00 -66 7 06/13/2025 03:15 AM
43351 15.4 4.01 -5 49 43 51 0.10 -67 8 06/13/2025 03:00 AM
43350 15.4 3.95 -5 50 43 51 0.10 -67 8 06/13/2025 02:45 AM
43349 15.4 4.02 -5 50 43 52 0.00 -67 8 06/13/2025 02:30 AM